Time;durP1;ratioP1;P1;durP2;ratioP2;P2;SDS_P1;SDS_P2;PMS_P1;PMS_P2;Temp;Humidity;BMP_temperature;BMP_pressure;BME280_temperature;BME280_humidity;BME280_pressure;Samples;Min_cycle;Max_cycle;Signal;HPM_P1;HPM_P2
2023/04/23 00:02:25;;;;;;;5.30;4.13;;;13.50;99.90;;;;;;5073794;28;20246;-78
2023/04/23 00:04:56;;;;;;;4.32;3.92;;;13.40;99.90;;;;;;5073457;28;20252;-78
2023/04/23 00:07:27;;;;;;;4.50;3.83;;;13.40;99.90;;;;;;5073309;28;20250;-78
2023/04/23 00:09:58;;;;;;;4.97;4.13;;;13.40;99.90;;;;;;5073468;28;20239;-78
2023/04/23 00:12:27;;;;;;;3.90;3.38;;;13.40;99.90;;;;;;5073260;28;20236;-78
2023/04/23 00:14:56;;;;;;;4.05;3.60;;;13.40;99.90;;;;;;5073016;28;20219;-78
2023/04/23 00:17:24;;;;;;;5.35;4.85;;;13.40;99.90;;;;;;5073590;28;20215;-77
2023/04/23 00:19:52;;;;;;;7.05;3.83;;;13.30;99.90;;;;;;5073048;28;20307;-77
2023/04/23 00:22:21;;;;;;;4.45;3.85;;;13.30;99.90;;;;;;5072792;28;20244;-77
2023/04/23 00:24:54;;;;;;;4.10;3.53;;;13.30;99.90;;;;;;5072996;28;20235;-80
2023/04/23 00:27:22;;;;;;;4.43;4.03;;;13.20;99.90;;;;;;5072873;28;20216;-77
2023/04/23 00:29:50;;;;;;;4.28;3.45;;;13.20;99.90;;;;;;5073096;28;20240;-77
2023/04/23 00:32:18;;;;;;;4.28;3.72;;;13.20;99.90;;;;;;5072908;28;20327;-77
2023/04/23 00:34:48;;;;;;;4.60;3.65;;;13.10;99.90;;;;;;5073772;28;20227;-77
2023/04/23 00:37:16;;;;;;;4.35;3.95;;;13.10;99.90;;;;;;5072828;28;20234;-78
2023/04/23 00:39:44;;;;;;;4.15;3.75;;;13.10;99.90;;;;;;5073194;28;20220;-77
2023/04/23 00:42:16;;;;;;;5.07;4.30;;;13.10;99.90;;;;;;5073005;28;20238;-77
2023/04/23 00:44:44;;;;;;;4.63;4.10;;;13.10;99.90;;;;;;5073436;28;20281;-77
2023/04/23 00:47:13;;;;;;;4.22;3.42;;;13.10;99.90;;;;;;5072672;28;20306;-77
2023/04/23 00:49:43;;;;;;;3.47;3.17;;;13.10;99.90;;;;;;5073052;28;20237;-77
2023/04/23 00:52:11;;;;;;;4.25;3.80;;;13.10;99.90;;;;;;5072705;28;20248;-79
2023/04/23 00:54:39;;;;;;;4.45;3.33;;;13.10;99.90;;;;;;5072835;28;20229;-77
2023/04/23 00:57:08;;;;;;;4.60;3.25;;;13.20;99.90;;;;;;5072513;28;20306;-77
2023/04/23 00:59:38;;;;;;;6.70;4.25;;;13.10;99.90;;;;;;5072758;28;20220;-77
2023/04/23 01:02:06;;;;;;;4.00;3.63;;;13.10;99.90;;;;;;5072935;28;20248;-77
2023/04/23 01:04:37;;;;;;;7.10;4.57;;;13.10;99.90;;;;;;5072736;28;20266;-77
2023/04/23 01:07:06;;;;;;;6.75;4.95;;;13.00;99.90;;;;;;5072334;28;20224;-77
2023/04/23 01:09:34;;;;;;;4.88;4.45;;;13.00;99.90;;;;;;5072775;28;20224;-77
2023/04/23 01:12:05;;;;;;;4.22;3.80;;;12.90;99.90;;;;;;5071838;28;20239;-77
2023/04/23 01:14:34;;;;;;;4.32;3.92;;;12.90;99.90;;;;;;5072490;28;20255;-77
2023/04/23 01:17:04;;;;;;;6.32;4.68;;;12.80;99.90;;;;;;5072340;28;20230;-77
2023/04/23 01:19:33;;;;;;;4.57;4.05;;;12.80;99.90;;;;;;5072581;28;20275;-77
2023/04/23 01:22:01;;;;;;;4.18;3.83;;;12.70;99.90;;;;;;5072334;28;20246;-78
2023/04/23 01:24:32;;;;;;;9.80;4.57;;;12.70;99.90;;;;;;5072491;28;20227;-78
2023/04/23 01:27:01;;;;;;;6.07;3.90;;;12.70;99.90;;;;;;5072508;28;20228;-77
2023/04/23 01:29:29;;;;;;;4.18;3.42;;;12.60;99.90;;;;;;5072496;28;20216;-77
2023/04/23 01:31:59;;;;;;;3.65;3.35;;;12.60;99.90;;;;;;5071922;28;20247;-77
2023/04/23 01:34:27;;;;;;;4.07;3.67;;;12.60;99.90;;;;;;5072468;28;20216;-77
2023/04/23 01:36:57;;;;;;;5.97;3.30;;;12.60;99.90;;;;;;5072280;28;20224;-77
2023/04/23 01:39:25;;;;;;;3.80;3.42;;;12.60;99.90;;;;;;5073257;28;20220;-77
2023/04/23 01:41:56;;;;;;;4.18;3.35;;;12.60;99.90;;;;;;5076065;28;20307;-77
2023/04/23 01:44:24;;;;;;;4.43;3.53;;;12.60;99.90;;;;;;5076145;28;20279;-77
2023/04/23 01:46:53;;;;;;;8.02;4.22;;;12.60;99.90;;;;;;5076157;28;20245;-77
2023/04/23 01:49:21;;;;;;;6.95;3.75;;;12.50;99.90;;;;;;5076012;28;20226;-77
2023/04/23 01:51:49;;;;;;;3.50;3.20;;;12.50;99.90;;;;;;5075993;28;20235;-77
2023/04/23 01:54:18;;;;;;;4.13;3.65;;;12.40;99.90;;;;;;5075999;28;20234;-77
2023/04/23 01:56:46;;;;;;;7.22;3.97;;;12.40;99.90;;;;;;5076036;28;20223;-80
2023/04/23 01:59:16;;;;;;;8.23;4.47;;;12.40;99.90;;;;;;5076129;28;20226;-77
2023/04/23 02:01:46;;;;;;;4.47;4.07;;;12.30;99.90;;;;;;5075812;28;20220;-77
2023/04/23 02:04:15;;;;;;;4.55;3.47;;;12.20;99.90;;;;;;5076237;28;20219;-77
2023/04/23 02:06:47;;;;;;;4.63;3.47;;;12.20;99.90;;;;;;5075804;28;20279;-77
2023/04/23 02:09:15;;;;;;;4.43;4.03;;;12.20;99.90;;;;;;5075615;28;20235;-77
2023/04/23 02:11:43;;;;;;;5.22;4.72;;;12.10;99.90;;;;;;5075320;28;20266;-78
2023/04/23 02:14:12;;;;;;;4.57;4.15;;;12.10;99.90;;;;;;5076342;28;20220;-77
2023/04/23 02:16:42;;;;;;;4.80;4.38;;;12.10;99.90;;;;;;5075625;28;20220;-78
2023/04/23 02:19:11;;;;;;;4.50;4.10;;;12.10;99.90;;;;;;5075851;28;20274;-79
2023/04/23 02:21:42;;;;;;;4.53;4.13;;;12.10;99.90;;;;;;5075467;28;20226;-79
2023/04/23 02:24:10;;;;;;;7.15;4.55;;;12.00;99.90;;;;;;5075457;28;20232;-79
2023/04/23 02:26:38;;;;;;;10.70;4.38;;;12.00;99.90;;;;;;5075960;28;20229;-79
2023/04/23 02:29:07;;;;;;;6.63;4.80;;;12.00;99.90;;;;;;5075833;28;20223;-79
2023/04/23 02:31:35;;;;;;;5.47;4.75;;;11.90;99.90;;;;;;5075031;28;20239;-79
2023/04/23 02:34:05;;;;;;;6.18;3.70;;;11.90;99.90;;;;;;5075562;28;20249;-79
2023/04/23 02:36:33;;;;;;;4.65;4.25;;;11.90;99.90;;;;;;5075005;28;20216;-78
2023/04/23 02:39:01;;;;;;;6.35;4.30;;;11.80;99.90;;;;;;5075681;28;20227;-79
2023/04/23 02:41:29;;;;;;;5.20;4.10;;;11.80;99.90;;;;;;5074944;28;20231;-79
2023/04/23 02:43:58;;;;;;;3.95;3.65;;;11.80;99.90;;;;;;5074986;28;20246;-79
2023/04/23 02:46:26;;;;;;;6.35;4.65;;;11.80;99.90;;;;;;5075174;28;20222;-78
2023/04/23 02:48:54;;;;;;;6.07;4.57;;;11.80;99.90;;;;;;5075050;28;20255;-78
2023/04/23 02:51:25;;;;;;;4.85;4.40;;;11.70;99.90;;;;;;5074905;28;20244;-79
2023/04/23 02:53:53;;;;;;;8.60;5.22;;;11.70;99.90;;;;;;5075349;28;20248;-79
2023/04/23 02:56:21;;;;;;;5.03;4.38;;;11.70;99.90;;;;;;5074882;28;20224;-79
2023/04/23 02:58:49;;;;;;;6.20;4.47;;;11.70;99.90;;;;;;5074991;28;20298;-79
2023/04/23 03:01:18;;;;;;;5.63;4.82;;;11.60;99.90;;;;;;5074932;28;20243;-79
2023/04/23 03:03:46;;;;;;;6.80;4.28;;;11.60;99.90;;;;;;5075108;28;20248;-78
2023/04/23 03:06:15;;;;;;;4.60;4.07;;;11.60;99.90;;;;;;5075027;28;20242;-78
2023/04/23 03:08:45;;;;;;;4.63;4.20;;;11.60;99.90;;;;;;5074755;28;20220;-79
2023/04/23 03:11:13;;;;;;;5.97;4.30;;;11.50;99.90;;;;;;5074049;28;20250;-79
2023/04/23 03:13:41;;;;;;;4.50;4.10;;;11.50;99.90;;;;;;5074549;28;20236;-79
2023/04/23 03:16:10;;;;;;;23.70;4.53;;;11.50;99.90;;;;;;5074589;28;20255;-79
2023/04/23 03:18:38;;;;;;;20.75;4.03;;;11.40;99.90;;;;;;5074854;28;20308;-79
2023/04/23 03:21:07;;;;;;;7.72;4.60;;;11.40;99.90;;;;;;5074867;28;20216;-79
2023/04/23 03:23:35;;;;;;;4.18;3.80;;;11.40;99.90;;;;;;5073687;28;20279;-79
2023/04/23 03:26:05;;;;;;;6.07;3.70;;;11.40;99.90;;;;;;5074180;28;20259;-78
2023/04/23 03:28:34;;;;;;;5.35;4.60;;;11.40;99.90;;;;;;5074571;28;20212;-78
2023/04/23 03:31:02;;;;;;;4.65;4.25;;;11.40;99.90;;;;;;5074473;28;20222;-79
2023/04/23 03:33:30;;;;;;;4.65;4.25;;;11.30;99.90;;;;;;5074048;28;20236;-78
2023/04/23 03:35:59;;;;;;;4.90;4.45;;;11.30;99.90;;;;;;5074251;28;20226;-79
2023/04/23 03:38:27;;;;;;;6.40;5.70;;;11.30;99.90;;;;;;5073812;28;20216;-78
2023/04/23 03:40:55;;;;;;;5.50;5.00;;;11.30;99.90;;;;;;5074035;28;20219;-78
2023/04/23 03:43:25;;;;;;;6.20;5.05;;;11.20;99.90;;;;;;5073857;28;20240;-78
2023/04/23 03:45:53;;;;;;;4.75;4.35;;;11.20;99.90;;;;;;5074034;28;20243;-78
2023/04/23 03:48:22;;;;;;;4.90;4.28;;;11.20;99.90;;;;;;5073898;28;20246;-79
2023/04/23 03:50:50;;;;;;;12.55;4.97;;;11.10;99.90;;;;;;5073943;28;20255;-79
2023/04/23 03:53:18;;;;;;;5.82;4.40;;;11.10;99.90;;;;;;5073190;28;20244;-78
2023/04/23 03:55:47;;;;;;;6.15;4.07;;;11.10;99.90;;;;;;5073843;28;20212;-78
2023/04/23 03:58:15;;;;;;;5.47;4.43;;;11.10;99.90;;;;;;5074216;28;20220;-78
2023/04/23 04:00:46;;;;;;;5.10;4.03;;;11.10;99.90;;;;;;5073823;28;20224;-78
2023/04/23 04:03:14;;;;;;;4.75;4.38;;;11.10;99.90;;;;;;5073112;28;20262;-79
2023/04/23 04:05:43;;;;;;;4.38;3.78;;;11.10;99.90;;;;;;5073859;28;20234;-78
2023/04/23 04:08:11;;;;;;;4.18;3.78;;;11.10;99.90;;;;;;5073376;28;20231;-78
2023/04/23 04:10:40;;;;;;;3.63;3.38;;;11.10;99.90;;;;;;5073718;28;20224;-79
2023/04/23 04:13:08;;;;;;;6.60;3.97;;;11.10;99.90;;;;;;5072871;28;20240;-78
2023/04/23 04:15:36;;;;;;;6.57;4.25;;;11.10;99.90;;;;;;5073391;28;20224;-78
2023/04/23 04:18:06;;;;;;;5.30;4.15;;;11.10;99.90;;;;;;5073320;28;20247;-78
2023/04/23 04:20:34;;;;;;;5.28;4.78;;;11.10;99.90;;;;;;5073448;28;20220;-78
2023/04/23 04:23:02;;;;;;;4.60;3.95;;;11.10;99.90;;;;;;5072978;28;20239;-79
2023/04/23 04:25:31;;;;;;;4.20;3.80;;;11.00;99.90;;;;;;5073709;28;20227;-79
2023/04/23 04:27:59;;;;;;;7.57;4.45;;;11.00;99.90;;;;;;5072925;28;20235;-79
2023/04/23 04:30:27;;;;;;;4.25;3.85;;;11.00;99.90;;;;;;5073173;28;20211;-78
2023/04/23 04:32:55;;;;;;;5.80;5.18;;;11.00;99.90;;;;;;5072913;28;20246;-78
2023/04/23 04:35:25;;;;;;;4.47;4.03;;;11.10;99.90;;;;;;5073249;28;20315;-78
2023/04/23 04:37:53;;;;;;;4.65;4.32;;;11.10;99.90;;;;;;5073115;28;20219;-79
2023/04/23 04:40:22;;;;;;;4.55;4.15;;;11.10;99.90;;;;;;5072995;28;20223;-78
2023/04/23 04:42:50;;;;;;;4.45;4.05;;;11.10;99.90;;;;;;5072702;28;20240;-78
2023/04/23 04:45:18;;;;;;;4.65;4.20;;;11.10;99.90;;;;;;5072743;28;20226;-78
2023/04/23 04:47:47;;;;;;;4.65;3.88;;;11.10;99.90;;;;;;5073045;28;20251;-78
2023/04/23 04:50:15;;;;;;;4.25;3.88;;;11.20;99.90;;;;;;5072619;28;20250;-78
2023/04/23 04:52:45;;;;;;;6.15;4.78;;;11.20;99.90;;;;;;5072713;28;20240;-78
2023/04/23 04:55:13;;;;;;;4.95;4.28;;;11.20;99.90;;;;;;5072805;28;20303;-78
2023/04/23 04:57:42;;;;;;;12.90;4.97;;;11.20;99.90;;;;;;5072644;28;20226;-79
2023/04/23 05:00:28;;;;;;;5.05;4.43;;;11.20;99.90;;;;;;5072907;28;20231;-78
2023/04/23 05:02:57;;;;;;;4.63;4.22;;;11.20;99.90;;;;;;5071671;28;20327;-78
2023/04/23 05:05:27;;;;;;;7.80;4.57;;;11.30;99.90;;;;;;5072833;28;20251;-78
2023/04/23 05:08:00;;;;;;;4.63;4.22;;;11.30;99.90;;;;;;5072658;28;20228;-78
2023/04/23 05:10:29;;;;;;;9.45;4.97;;;11.40;99.90;;;;;;5072323;28;20212;-79
2023/04/23 05:12:58;;;;;;;5.07;4.35;;;11.40;99.90;;;;;;5072119;28;20248;-78
2023/04/23 05:15:26;;;;;;;8.45;5.05;;;11.40;99.90;;;;;;5072529;28;20219;-78
2023/04/23 05:17:55;;;;;;;5.20;4.70;;;11.50;99.90;;;;;;5072988;28;20231;-78
2023/04/23 05:20:23;;;;;;;5.15;4.65;;;11.50;99.90;;;;;;5072638;28;20224;-79
2023/04/23 05:22:51;;;;;;;6.10;4.90;;;11.50;99.90;;;;;;5072096;28;20235;-79
2023/04/23 05:25:21;;;;;;;6.30;5.57;;;11.60;99.90;;;;;;5072416;28;20233;-79
2023/04/23 05:27:49;;;;;;;5.43;4.38;;;11.60;99.90;;;;;;5072289;28;20226;-78
2023/04/23 05:30:17;;;;;;;7.85;5.30;;;11.70;99.90;;;;;;5072649;28;20230;-78
2023/04/23 05:32:46;;;;;;;4.50;4.10;;;11.70;99.90;;;;;;5072073;28;20250;-78
2023/04/23 05:35:14;;;;;;;5.93;5.13;;;11.80;99.90;;;;;;5072519;28;20232;-78
2023/04/23 05:37:42;;;;;;;5.53;5.03;;;11.80;99.90;;;;;;5072161;28;20228;-79
2023/04/23 05:40:12;;;;;;;5.30;4.80;;;11.80;99.90;;;;;;5072365;28;20303;-79
2023/04/23 05:42:41;;;;;;;8.35;5.38;;;11.90;99.90;;;;;;5071723;28;20239;-78
2023/04/23 05:45:11;;;;;;;5.68;4.90;;;11.90;99.90;;;;;;5072678;28;20224;-78
2023/04/23 05:47:39;;;;;;;4.65;4.25;;;12.00;99.90;;;;;;5072180;28;20223;-79
2023/04/23 05:50:10;;;;;;;6.10;4.70;;;12.00;99.90;;;;;;5072187;28;20220;-78
2023/04/23 05:52:38;;;;;;;8.32;5.45;;;12.00;99.90;;;;;;5071630;28;20236;-78
2023/04/23 05:55:08;;;;;;;5.75;5.05;;;12.10;99.90;;;;;;5071741;28;20228;-79
2023/04/23 05:57:41;;;;;;;5.65;5.15;;;12.10;99.90;;;;;;5072312;28;20220;-79
2023/04/23 06:00:11;;;;;;;5.30;4.80;;;12.20;99.90;;;;;;5072488;28;20218;-79
2023/04/23 06:02:39;;;;;;;6.25;5.65;;;12.20;99.90;;;;;;5071765;28;20250;-78
2023/04/23 06:05:09;;;;;;;5.50;4.93;;;12.30;99.90;;;;;;5071820;28;20281;-79
2023/04/23 06:07:37;;;;;;;8.75;5.75;;;12.40;99.90;;;;;;5071652;28;20235;-79
2023/04/23 06:10:07;;;;;;;7.00;4.90;;;12.50;99.90;;;;;;5072590;28;20236;-78
2023/04/23 06:12:38;;;;;;;6.22;5.60;;;12.50;99.90;;;;;;5071932;28;20240;-78
2023/04/23 06:15:10;;;;;;;5.72;5.22;;;12.60;99.90;;;;;;5072231;28;20228;-79
2023/04/23 06:17:38;;;;;;;5.57;4.97;;;12.70;99.90;;;;;;5072045;28;20302;-78
2023/04/23 06:20:09;;;;;;;7.20;6.25;;;12.70;99.90;;;;;;5071732;28;20234;-78
2023/04/23 06:22:38;;;;;;;6.60;5.32;;;12.80;99.90;;;;;;5071866;28;20300;-78
2023/04/23 06:25:06;;;;;;;5.53;4.60;;;12.90;99.90;;;;;;5072469;28;20278;-79
2023/04/23 06:27:35;;;;;;;7.57;5.57;;;13.00;99.90;;;;;;5075552;28;20224;-79
2023/04/23 06:30:03;;;;;;;5.90;5.07;;;13.10;99.90;;;;;;5075485;28;20302;-78
2023/04/23 06:32:33;;;;;;;6.20;5.57;;;13.20;99.90;;;;;;5074649;28;20244;-78
2023/04/23 06:35:02;;;;;;;8.02;5.95;;;13.20;99.90;;;;;;5075121;28;20255;-78
2023/04/23 06:37:31;;;;;;;5.93;5.15;;;13.30;99.90;;;;;;5075645;28;20219;-78
2023/04/23 06:40:00;;;;;;;5.95;5.45;;;13.40;99.90;;;;;;5075011;28;20225;-79
2023/04/23 06:42:28;;;;;;;7.72;5.70;;;13.50;99.90;;;;;;5074783;28;20244;-79
2023/04/23 06:44:58;;;;;;;6.43;5.40;;;13.60;99.90;;;;;;5075052;28;20220;-78
2023/04/23 06:47:26;;;;;;;7.95;5.68;;;13.70;99.90;;;;;;5075409;28;20222;-78
2023/04/23 06:49:56;;;;;;;11.68;5.90;;;13.80;99.90;;;;;;5075108;28;20228;-78
2023/04/23 06:52:24;;;;;;;5.55;5.05;;;13.90;99.90;;;;;;5075058;28;20235;-78
2023/04/23 06:54:53;;;;;;;5.00;4.55;;;14.00;99.90;;;;;;5074420;28;20247;-78
2023/04/23 06:57:21;;;;;;;7.57;5.05;;;14.00;99.90;;;;;;5075132;28;20216;-78
2023/04/23 06:59:51;;;;;;;5.40;4.90;;;14.10;99.90;;;;;;5074628;28;20231;-78
2023/04/23 07:02:19;;;;;;;4.68;4.28;;;14.30;99.90;;;;;;5074629;28;20250;-78
2023/04/23 07:04:47;;;;;;;5.03;4.63;;;14.30;99.90;;;;;;5074894;28;20250;-79
2023/04/23 07:07:17;;;;;;;5.93;4.57;;;14.40;99.90;;;;;;5074968;28;20227;-78
2023/04/23 07:09:45;;;;;;;5.50;4.80;;;14.60;99.90;;;;;;5075131;28;20245;-78
2023/04/23 07:12:14;;;;;;;4.78;4.25;;;14.70;99.90;;;;;;5074385;28;20244;-78
2023/04/23 07:14:42;;;;;;;4.00;3.65;;;15.00;99.90;;;;;;5074612;28;20248;-78
2023/04/23 07:17:10;;;;;;;5.68;4.78;;;15.20;99.90;;;;;;5074789;28;20214;-79
2023/04/23 07:19:39;;;;;;;4.25;3.88;;;15.40;99.90;;;;;;5074558;28;20223;-78
2023/04/23 07:22:07;;;;;;;4.53;4.10;;;15.60;99.90;;;;;;5074178;28;20244;-78
2023/04/23 07:24:37;;;;;;;5.10;4.10;;;15.80;99.90;;;;;;5074590;28;20239;-78
2023/04/23 07:27:07;;;;;;;8.18;3.88;;;16.10;99.90;;;;;;5074584;28;20232;-78
2023/04/23 07:29:35;;;;;;;4.85;3.85;;;16.30;99.90;;;;;;5074490;28;20220;-78
2023/04/23 07:32:03;;;;;;;6.25;4.20;;;16.60;99.90;;;;;;5074023;28;20244;-78
2023/04/23 07:34:32;;;;;;;6.10;4.82;;;16.80;99.90;;;;;;5073906;28;20239;-78
2023/04/23 07:37:01;;;;;;;4.80;4.28;;;17.10;99.90;;;;;;5072683;28;20230;-78
2023/04/23 07:39:30;;;;;;;5.15;4.43;;;17.30;99.90;;;;;;5073765;28;20282;-78
2023/04/23 07:42:00;;;;;;;4.80;4.45;;;17.50;99.90;;;;;;5073795;28;20222;-77
2023/04/23 07:44:28;;;;;;;6.22;4.95;;;17.60;99.90;;;;;;5074580;28;20216;-77
2023/04/23 07:46:57;;;;;;;5.07;4.13;;;17.60;99.90;;;;;;5073819;28;20220;-78
2023/04/23 07:49:25;;;;;;;9.55;5.18;;;17.80;99.90;;;;;;5074060;28;20234;-77
2023/04/23 07:51:53;;;;;;;5.57;5.00;;;18.00;99.90;;;;;;5073328;28;20224;-78
2023/04/23 07:54:21;;;;;;;5.57;4.75;;;18.20;99.90;;;;;;5074015;28;20232;-78
2023/04/23 07:56:52;;;;;;;4.32;3.92;;;18.50;99.90;;;;;;5073627;28;20243;-78
2023/04/23 07:59:22;;;;;;;5.38;4.70;;;18.80;99.90;;;;;;5073906;28;20205;-77
2023/04/23 08:01:51;;;;;;;5.15;4.75;;;19.10;99.90;;;;;;5073516;28;20228;-79
2023/04/23 08:04:19;;;;;;;5.50;4.07;;;19.50;99.90;;;;;;5073515;28;20224;-78
2023/04/23 08:06:48;;;;;;;5.32;4.40;;;20.20;99.90;;;;;;5073790;28;20228;-79
2023/04/23 08:09:16;;;;;;;5.35;4.75;;;20.90;99.60;;;;;;5073275;28;20279;-78
2023/04/23 08:11:44;;;;;;;5.03;4.40;;;21.50;97.90;;;;;;5073245;28;20220;-79
2023/04/23 08:14:12;;;;;;;5.72;4.30;;;22.00;96.20;;;;;;5073354;28;20240;-79
2023/04/23 08:16:43;;;;;;;4.32;4.03;;;22.50;94.60;;;;;;5073506;28;20211;-78
2023/04/23 08:19:11;;;;;;;4.68;4.25;;;23.10;93.10;;;;;;5073415;28;20228;-78
2023/04/23 08:21:40;;;;;;;6.25;4.20;;;23.40;92.10;;;;;;5072750;28;20228;-79
2023/04/23 08:24:08;;;;;;;4.53;4.10;;;24.00;91.50;;;;;;5073084;28;20219;-79
2023/04/23 08:26:36;;;;;;;4.95;3.67;;;24.30;89.00;;;;;;5073452;28;20205;-79
2023/04/23 08:29:06;;;;;;;4.40;3.88;;;24.50;87.20;;;;;;5073111;28;20215;-79
2023/04/23 08:31:38;;;;;;;4.88;4.18;;;24.40;85.30;;;;;;5072917;28;20217;-79
2023/04/23 08:34:08;;;;;;;3.70;3.40;;;23.90;85.70;;;;;;5072740;28;20285;-80
2023/04/23 08:36:36;;;;;;;8.18;3.88;;;23.50;86.40;;;;;;5073512;28;20213;-80
2023/04/23 08:39:05;;;;;;;4.70;4.28;;;23.10;87.00;;;;;;5072837;28;20216;-79
2023/04/23 08:41:38;;;;;;;4.57;3.83;;;22.80;88.30;;;;;;5072826;28;20201;-79
2023/04/23 08:44:13;;;;;;;6.32;4.90;;;22.50;89.50;;;;;;5072785;28;20220;-79
2023/04/23 08:46:43;;;;;;;4.13;3.78;;;22.70;88.90;;;;;;5073159;28;20228;-79
2023/04/23 08:49:16;;;;;;;5.13;4.45;;;23.10;89.20;;;;;;5072654;28;20235;-79
2023/04/23 08:51:49;;;;;;;4.88;4.35;;;23.10;88.90;;;;;;5073164;28;20212;-79
2023/04/23 08:54:22;;;;;;;6.10;3.65;;;23.20;88.30;;;;;;5072918;28;20232;-79
2023/04/23 08:56:51;;;;;;;4.60;4.05;;;23.40;87.60;;;;;;5072647;28;20205;-78
2023/04/23 08:59:21;;;;;;;4.80;3.88;;;23.60;86.90;;;;;;5072632;28;20217;-79
2023/04/23 09:01:50;;;;;;;4.22;3.88;;;23.70;85.50;;;;;;5072566;28;20227;-79
2023/04/23 09:04:19;;;;;;;4.72;3.80;;;24.30;85.60;;;;;;5072774;28;20253;-78
2023/04/23 09:06:48;;;;;;;3.63;3.40;;;24.70;84.70;;;;;;5072937;28;20299;-78
2023/04/23 09:09:17;;;;;;;5.57;3.63;;;25.00;83.80;;;;;;5072765;28;20223;-79
2023/04/23 09:11:45;;;;;;;3.78;3.45;;;25.20;82.50;;;;;;5072211;28;20255;-79
2023/04/23 09:14:14;;;;;;;5.50;4.60;;;25.10;82.50;;;;;;5072467;28;20310;-78
2023/04/23 09:16:43;;;;;;;4.47;3.90;;;25.60;81.50;;;;;;5072274;28;20228;-78
2023/04/23 09:19:11;;;;;;;3.95;3.65;;;26.10;79.00;;;;;;5073003;28;20220;-76
2023/04/23 09:21:42;;;;;;;6.93;3.63;;;26.30;78.10;;;;;;5072559;28;20234;-76
2023/04/23 09:24:11;;;;;;;3.55;3.30;;;26.00;77.30;;;;;;5072614;28;20231;-77
2023/04/23 09:26:45;;;;;;;5.97;4.03;;;25.80;78.00;;;;;;5072452;28;20220;-77
2023/04/23 09:29:17;;;;;;;7.30;3.40;;;25.80;78.00;;;;;;5072642;28;20222;-77
2023/04/23 09:31:48;;;;;;;3.95;3.55;;;25.90;77.60;;;;;;5072454;28;20224;-77
2023/04/23 09:34:17;;;;;;;4.50;3.97;;;26.00;78.30;;;;;;5072635;28;20216;-77
2023/04/23 09:36:49;;;;;;;8.32;4.22;;;25.90;77.80;;;;;;5072150;28;20226;-76
2023/04/23 09:39:19;;;;;;;5.88;4.72;;;26.20;77.60;;;;;;5072088;28;20302;-77
2023/04/23 09:41:47;;;;;;;7.60;3.83;;;26.40;77.10;;;;;;5071972;28;20216;-76
2023/04/23 09:44:18;;;;;;;4.18;3.72;;;26.50;75.40;;;;;;5072023;28;20278;-77
2023/04/23 09:46:47;;;;;;;3.80;3.45;;;26.00;75.80;;;;;;5072419;28;20215;-77
2023/04/23 09:49:15;;;;;;;6.13;3.65;;;25.50;75.80;;;;;;5072796;28;20224;-77
2023/04/23 09:51:47;;;;;;;4.40;4.00;;;25.80;76.70;;;;;;5071832;28;20223;-77
2023/04/23 09:54:17;;;;;;;3.53;3.33;;;25.90;77.40;;;;;;5072031;28;20280;-77
2023/04/23 09:56:50;;;;;;;3.63;3.33;;;26.20;76.20;;;;;;5071435;28;20268;-77
2023/04/23 09:59:23;;;;;;;5.78;3.78;;;26.30;75.30;;;;;;5072458;28;20227;-76
2023/04/23 10:02:08;;;;;;;3.75;3.45;;;26.50;74.50;;;;;;5075669;28;20239;-77
2023/04/23 10:04:39;;;;;;;4.20;3.90;;;26.60;73.80;;;;;;5076078;28;20311;-77
2023/04/23 10:07:12;;;;;;;4.85;3.75;;;26.60;72.70;;;;;;5075652;28;20219;-77
2023/04/23 10:09:48;;;;;;;3.72;3.42;;;27.10;73.00;;;;;;5075948;28;20282;-76
2023/04/23 10:12:17;;;;;;;5.47;3.83;;;27.20;73.00;;;;;;5075505;28;20240;-77
2023/04/23 10:14:52;;;;;;;5.18;3.75;;;27.30;71.60;;;;;;5076146;28;20228;-77
2023/04/23 10:17:20;;;;;;;3.55;3.25;;;27.50;70.50;;;;;;5075803;28;20215;-77
2023/04/23 10:19:51;;;;;;;3.35;3.05;;;27.60;69.80;;;;;;5075771;28;20307;-77
2023/04/23 10:22:22;;;;;;;5.78;3.70;;;27.70;69.00;;;;;;5075305;28;20243;-77
2023/04/23 10:24:55;;;;;;;4.05;3.53;;;28.10;70.50;;;;;;5075467;28;20220;-77
2023/04/23 10:27:27;;;;;;;3.65;3.35;;;28.00;68.30;;;;;;5075693;28;20310;-77
2023/04/23 10:30:16;;;;;;;4.32;3.70;;;28.00;67.80;;;;;;5075795;28;20216;-77
2023/04/23 10:32:45;;;;;;;5.55;3.38;;;27.70;68.00;;;;;;5075437;28;20235;-77
2023/04/23 10:35:13;;;;;;;5.05;3.38;;;27.70;67.80;;;;;;5075142;28;20236;-77
2023/04/23 10:37:45;;;;;;;5.00;3.13;;;27.70;68.30;;;;;;5075541;28;20224;-77
2023/04/23 10:40:16;;;;;;;3.33;2.88;;;27.70;67.90;;;;;;5075430;28;20301;-77
2023/04/23 10:42:46;;;;;;;4.65;3.50;;;27.50;66.70;;;;;;5075028;28;20267;-77
2023/04/23 10:45:15;;;;;;;3.70;2.85;;;27.00;66.60;;;;;;5075133;28;20212;-77
2023/04/23 10:47:53;;;;;;;5.18;2.95;;;26.90;67.50;;;;;;5075304;28;20231;-77
2023/04/23 10:50:23;;;;;;;4.07;3.60;;;27.00;67.10;;;;;;5075243;28;20218;-77
2023/04/23 10:52:55;;;;;;;4.45;3.65;;;27.20;67.20;;;;;;5075040;28;20247;-77
2023/04/23 10:55:27;;;;;;;3.28;2.97;;;27.50;66.20;;;;;;5074865;28;20235;-77
2023/04/23 10:58:01;;;;;;;3.92;3.47;;;27.70;66.00;;;;;;5074889;28;20236;-76
2023/04/23 11:00:44;;;;;;;2.95;2.65;;;27.60;65.80;;;;;;5075442;28;20219;-77
2023/04/23 11:03:30;;;;;;;3.10;2.85;;;27.80;65.40;;;;;;5074565;28;20247;-76
2023/04/23 11:06:02;;;;;;;3.00;2.80;;;27.90;63.70;;;;;;5074639;28;20280;-77
2023/04/23 11:08:32;;;;;;;4.20;3.25;;;27.70;64.20;;;;;;5074890;28;20222;-77
2023/04/23 11:11:02;;;;;;;3.58;3.28;;;27.50;65.60;;;;;;5074258;28;20216;-79
2023/04/23 11:13:30;;;;;;;3.22;2.92;;;27.60;65.00;;;;;;5074562;28;20240;-80
2023/04/23 11:16:18;;;;;;;3.15;2.85;;;27.90;66.20;;;;;;5072973;28;20239;-75
2023/04/23 11:18:58;;;;;;;3.33;3.10;;;28.20;65.00;;;;;;5074381;28;20220;-75
2023/04/23 11:22:01;;;;;;;3.50;3.20;;;28.30;64.60;;;;;;5074224;28;20291;-75
2023/04/23 11:24:35;;;;;;;4.18;3.28;;;28.10;63.30;;;;;;5074354;28;20284;-75
2023/04/23 11:27:06;;;;;;;3.85;3.28;;;27.80;62.20;;;;;;5074271;28;20207;-75
2023/04/23 11:29:36;;;;;;;3.35;3.00;;;27.90;63.20;;;;;;5074400;28;20272;-76
2023/04/23 11:32:09;;;;;;;3.25;3.05;;;27.80;63.30;;;;;;5073926;28;20229;-76
2023/04/23 11:34:39;;;;;;;3.28;3.00;;;27.80;64.00;;;;;;5067414;28;20208;-76
2023/04/23 11:37:11;;;;;;;3.92;3.58;;;28.10;64.70;;;;;;5065282;28;20231;-76
2023/04/23 11:39:42;;;;;;;5.95;3.15;;;28.30;62.50;;;;;;5063897;28;20280;-76
2023/04/23 11:42:11;;;;;;;2.65;2.45;;;28.00;62.80;;;;;;5063000;28;20248;-76
2023/04/23 11:44:41;;;;;;;2.88;2.63;;;27.70;62.40;;;;;;5070943;28;20213;-76
2023/04/23 11:47:11;;;;;;;3.88;3.30;;;27.50;63.10;;;;;;5073533;28;20225;-76
2023/04/23 11:49:41;;;;;;;3.50;3.15;;;27.60;62.80;;;;;;5073504;28;20215;-77
2023/04/23 11:52:10;;;;;;;4.38;3.05;;;27.80;62.90;;;;;;5073308;28;20233;-76
2023/04/23 11:54:42;;;;;;;2.80;2.55;;;27.90;64.00;;;;;;5073006;28;20205;-76
2023/04/23 11:57:10;;;;;;;4.45;3.65;;;28.10;62.80;;;;;;5073511;28;20220;-76
2023/04/23 11:59:39;;;;;;;5.13;3.55;;;28.50;63.00;;;;;;5072911;28;20212;-76
2023/04/23 12:02:07;;;;;;;4.63;3.13;;;28.40;61.70;;;;;;5072731;28;20249;-76
2023/04/23 12:04:36;;;;;;;8.77;2.95;;;28.50;61.00;;;;;;5073206;28;20517;-76
2023/04/23 12:07:08;;;;;;;3.15;2.95;;;28.40;60.60;;;;;;5073350;28;20209;-76
2023/04/23 12:09:58;;;;;;;5.63;3.20;;;28.10;60.70;;;;;;5073207;28;20281;-76
2023/04/23 12:12:33;;;;;;;4.40;2.97;;;27.90;60.20;;;;;;5072663;28;20269;-76
2023/04/23 12:15:06;;;;;;;3.00;2.72;;;27.80;62.30;;;;;;5073341;28;20209;-77
2023/04/23 12:17:34;;;;;;;9.32;4.05;;;27.70;63.30;;;;;;5073202;28;20236;-77
2023/04/23 12:20:05;;;;;;;7.07;3.47;;;27.80;63.10;;;;;;5072653;28;20219;-76
2023/04/23 12:22:33;;;;;;;3.30;2.90;;;27.60;62.20;;;;;;5071858;28;20225;-78
2023/04/23 12:25:08;;;;;;;4.03;2.97;;;27.40;61.90;;;;;;5059247;28;20212;-78
2023/04/23 12:27:39;;;;;;;3.13;2.92;;;26.90;62.50;;;;;;5073153;28;20240;-77
2023/04/23 12:30:10;;;;;;;2.97;2.78;;;26.70;63.90;;;;;;5073285;28;20213;-78
2023/04/23 12:32:39;;;;;;;4.13;3.38;;;26.50;63.40;;;;;;5072481;28;20232;-77
2023/04/23 12:35:08;;;;;;;3.05;2.85;;;26.50;63.30;;;;;;5072800;28;20207;-77
2023/04/23 12:37:37;;;;;;;6.07;3.10;;;26.60;63.90;;;;;;5072865;28;20225;-77
2023/04/23 12:40:09;;;;;;;5.60;2.97;;;26.60;64.00;;;;;;5072661;28;20266;-77
2023/04/23 12:42:37;;;;;;;3.67;2.72;;;26.70;62.40;;;;;;5072542;28;20233;-77
2023/04/23 12:45:07;;;;;;;6.13;2.88;;;26.50;62.30;;;;;;5072253;28;20200;-78
2023/04/23 12:47:35;;;;;;;3.00;2.70;;;26.40;62.60;;;;;;5073153;28;20276;-77
2023/04/23 12:50:04;;;;;;;3.55;2.83;;;26.50;63.70;;;;;;5072399;28;20212;-77
2023/04/23 12:52:32;;;;;;;2.92;2.60;;;26.60;62.60;;;;;;5072275;28;20233;-77
2023/04/23 12:55:01;;;;;;;2.60;2.40;;;26.40;61.70;;;;;;5072241;28;20200;-77
2023/04/23 12:57:31;;;;;;;2.60;2.40;;;26.30;61.60;;;;;;5072330;28;20217;-77
2023/04/23 12:59:59;;;;;;;3.15;2.83;;;26.00;61.90;;;;;;5072669;28;20216;-77